EGGP/LPL METAR and TAF weather

Enter ICAO airport designator
Station Type Date Time Source
EGGP METAR 2022/01/25 04:50 UTC NOAA

EGGP 250450Z AUTO 20006KT 150V220 9999 OVC012/// 02/M01 Q1033


Station Type Date Time Source
EGGP Decoded METAR 2022/01/25 04:50 UTC NOAA

Liverpool Airport , United Kingdom (EGGP) 53-20N 002-51W
Jan 24, 2022 - 11:50 PM EST / 2022.01.25 0450 UTC
Wind: from the SSW (200 degrees) at 7 MPH (6 KT) (direction variable):0
Visibility: greater than 7 mile(s):0
Sky conditions: overcast
Temperature: 35 F (2 C)
Windchill: 28 F (-2 C):1
Dew Point: 30 F (-1 C)
Relative Humidity: 80%
Pressure (altimeter): 30.50 in. Hg (1033 hPa)
ob: EGGP 250450Z AUTO 20006KT 150V220 9999 OVC012/// 02/M01 Q1033
cycle: 5

Station Type Date Time Source
EGGP TAF 2022/01/25 03:11 UTC NOAA

TAF
AMD EGGP 250306Z 2503/2524 11004KT 9999 BKN012
TEMPO 2503/2512 8000 BKN009 PROB30
TEMPO 2503/2512 4000 BR BKN004
BECMG 2515/2518 SCT020 PROB30
TEMPO 2518/2522 8000 BKN014

Example: see airport list